| time (UTC) | temp F | wind direction | speed MPH | gust MPH | rain 1hr in | rain 24hr in | rain mn in | humidity % | barometer mb |
| 20260508033043 | 44 | 15 | 4.0 | 6.0 | 0.00 | 0.00 | 0.00 | 87 | 1014.0 |
| 20260508032039 | 44 | 17 | 4.0 | 7.0 | 0.00 | 0.00 | 0.00 | 87 | 1014.0 |
| 20260508031057 | 44 | 21 | 4.0 | 6.0 | 0.00 | 0.00 | 0.00 | 87 | 1014.0 |
| 20260508030032 | 44 | 14 | 3.0 | 4.0 | 0.00 | 0.00 | 0.00 | 86 | 1014.0 |
| 20260508025029 | 44 | 0 | 3.0 | 5.0 | 0.00 | 0.00 | 0.00 | 86 | 1014.1 |
| 20260508024025 | 44 | 12 | 3.0 | 5.0 | 0.00 | 0.00 | 0.00 | 86 | 1014.0 |
| 20260508023121 | 44 | 24 | 3.0 | 6.0 | 0.00 | 0.00 | 0.00 | 85 | 1013.8 |
| 20260508022118 | 44 | 8 | 3.0 | 4.0 | 0.00 | 0.00 | 0.00 | 85 | 1013.7 |
| 20260508021115 | 44 | 356 | 4.0 | 7.0 | 0.00 | 0.00 | 0.00 | 85 | 1013.7 |
| 20260508020110 | 44 | 0 | 3.0 | 5.0 | 0.00 | 0.00 | 0.00 | 85 | 1013.9 |
| 20260508015108 | 44 | 23 | 4.0 | 7.0 | 0.00 | 0.00 | 0.00 | 85 | 1013.8 |
| 20260508014103 | 44 | 48 | 4.0 | 6.0 | 0.00 | 0.00 | 0.00 | 84 | 1013.8 |
| 20260508013100 | 44 | 36 | 3.0 | 5.0 | 0.00 | 0.00 | 0.00 | 84 | 1013.8 |
| 20260508012057 | 44 | 21 | 3.0 | 5.0 | 0.00 | 0.00 | 0.00 | 84 | 1013.9 |
| 20260508011052 | 44 | 15 | 4.0 | 6.0 | 0.00 | 0.00 | 0.00 | 83 | 1013.8 |
| 20260508010049 | 44 | 4 | 5.0 | 9.0 | 0.00 | 0.00 | 0.00 | 83 | 1013.8 |
| 20260508005125 | 44 | 40 | 4.0 | 7.0 | 0.00 | 0.00 | 0.00 | 83 | 1013.9 |
| 20260508004042 | 44 | 38 | 4.0 | 6.0 | 0.00 | 0.00 | 0.00 | 82 | 1013.9 |
| 20260508003039 | 44 | 50 | 4.0 | 8.0 | 0.00 | 0.00 | 0.00 | 82 | 1014.0 |
| 20260508002034 | 44 | 337 | 5.0 | 8.0 | 0.00 | 0.00 | 0.00 | 82 | 1014.0 |
| 20260508001052 | 44 | 45 | 5.0 | 9.0 | 0.00 | 0.00 | 0.00 | 82 | 1013.9 |
| 20260508000027 | 44 | 31 | 6.0 | 12.0 | 0.00 | 0.00 | 0.00 | 82 | 1013.8 |
| 20260507235124 | 44 | 33 | 4.0 | 8.0 | 0.00 | 0.00 | 0.00 | 81 | 1013.7 |
| 20260507234121 | 44 | 18 | 6.0 | 9.0 | 0.00 | 0.00 | 0.00 | 81 | 1013.7 |
| 20260507233117 | 44 | 19 | 4.0 | 6.0 | 0.00 | 0.00 | 0.00 | 81 | 1013.9 |
| 20260507232113 | 44 | 15 | 6.0 | 10.0 | 0.00 | 0.00 | 0.00 | 81 | 1013.9 |
| 20260507231110 | 44 | 0 | 6.0 | 11.0 | 0.00 | 0.00 | 0.00 | 80 | 1013.8 |
| 20260507230106 | 44 | 10 | 5.0 | 9.0 | 0.00 | 0.00 | 0.00 | 80 | 1013.8 |
| 20260507225102 | 44 | 24 | 4.0 | 8.0 | 0.00 | 0.00 | 0.00 | 80 | 1013.7 |
| 20260507224059 | 45 | 8 | 5.0 | 8.0 | 0.00 | 0.00 | 0.00 | 79 | 1013.7 |
| 20260507223115 | 45 | 354 | 4.0 | 8.0 | 0.00 | 0.00 | 0.00 | 78 | 1013.6 |
| 20260507222052 | 45 | 352 | 6.0 | 10.0 | 0.00 | 0.00 | 0.00 | 78 | 1013.6 |
| 20260507221047 | 45 | 41 | 5.0 | 8.0 | 0.00 | 0.00 | 0.00 | 78 | 1013.7 |
| 20260507220044 | 45 | 26 | 5.0 | 8.0 | 0.00 | 0.00 | 0.00 | 78 | 1013.6 |
| 20260507215040 | 45 | 3 | 5.0 | 9.0 | 0.00 | 0.00 | 0.00 | 78 | 1013.5 |
| 20260507214037 | 45 | 22 | 5.0 | 8.0 | 0.00 | 0.00 | 0.00 | 77 | 1013.5 |
| 20260507213033 | 45 | 35 | 5.0 | 10.0 | 0.00 | 0.00 | 0.00 | 77 | 1013.4 |
| 20260507212029 | 45 | 12 | 7.0 | 11.0 | 0.00 | 0.00 | 0.00 | 77 | 1013.3 |
| 20260507211026 | 45 | 11 | 5.0 | 9.0 | 0.00 | 0.00 | 0.00 | 77 | 1013.4 |
| 20260507210143 | 46 | 11 | 6.0 | 8.0 | 0.00 | 0.00 | 0.00 | 76 | 1013.5 |
| 20260507205139 | 46 | 6 | 5.0 | 10.0 | 0.00 | 0.00 | 0.00 | 76 | 1013.3 |
| 20260507204115 | 46 | 353 | 4.0 | 6.0 | 0.00 | 0.00 | 0.00 | 75 | 1013.1 |
| 20260507203112 | 46 | 0 | 5.0 | 8.0 | 0.00 | 0.00 | 0.00 | 74 | 1013.1 |
| 20260507202108 | 46 | 28 | 5.0 | 9.0 | 0.00 | 0.00 | 0.00 | 74 | 1013.1 |
| 20260507201109 | 46 | 18 | 5.0 | 10.0 | 0.00 | 0.00 | 0.00 | 75 | 1013.0 |
| 20260507195058 | 46 | 3 | 7.0 | 10.0 | 0.00 | 0.00 | 0.00 | 75 | 1012.7 |
| 20260507194054 | 46 | 35 | 7.0 | 12.0 | 0.00 | 0.00 | 0.00 | 75 | 1012.5 |
| 20260507193050 | 46 | 356 | 6.0 | 8.0 | 0.00 | 0.00 | 0.00 | 76 | 1012.5 |
| 20260507192106 | 46 | 18 | 6.0 | 11.0 | 0.00 | 0.00 | 0.00 | 75 | 1012.4 |
| 20260507191042 | 46 | 30 | 7.0 | 11.0 | 0.00 | 0.00 | 0.00 | 74 | 1012.3 |
| 20260507190120 | 46 | 28 | 8.0 | 13.0 | 0.00 | 0.00 | 0.00 | 74 | 1012.2 |
| 20260507185036 | 47 | 39 | 8.0 | 14.0 | 0.00 | 0.00 | 0.00 | 75 | 1012.2 |
| 20260507184032 | 47 | 41 | 6.0 | 12.0 | 0.00 | 0.00 | 0.00 | 75 | 1012.2 |
| 20260507183028 | 47 | 23 | 8.0 | 14.0 | 0.00 | 0.00 | 0.00 | 75 | 1012.0 |
| 20260507182030 | 47 | 31 | 8.0 | 12.0 | 0.00 | 0.00 | 0.00 | 75 | 1011.8 |
| 20260507181121 | 47 | 45 | 9.0 | 15.0 | 0.00 | 0.00 | 0.00 | 75 | 1011.7 |
| 20260507180118 | 47 | 34 | 6.0 | 14.0 | 0.00 | 0.00 | 0.00 | 75 | 1011.6 |
| 20260507175114 | 47 | 23 | 10.0 | 17.0 | 0.00 | 0.00 | 0.00 | 75 | 1011.7 |
| 20260507174110 | 47 | 3 | 7.0 | 11.0 | 0.00 | 0.00 | 0.00 | 74 | 1011.4 |
| 20260507173107 | 47 | 34 | 9.0 | 15.0 | 0.00 | 0.00 | 0.00 | 73 | 1011.4 |
| 20260507172103 | 48 | 19 | 8.0 | 13.0 | 0.00 | 0.00 | 0.00 | 73 | 1011.3 |
| 20260507171105 | 48 | 47 | 10.0 | 15.0 | 0.00 | 0.00 | 0.00 | 72 | 1011.4 |
| 20260507170116 | 48 | 12 | 10.0 | 15.0 | 0.00 | 0.00 | 0.00 | 71 | 1011.1 |
| 20260507165053 | 49 | 235 | 9.0 | 15.0 | 0.00 | 0.00 | 0.00 | 71 | 1011.3 |
| 20260507164049 | 49 | 37 | 9.0 | 15.0 | 0.00 | 0.00 | 0.00 | 72 | 1011.0 |
| 20260507163045 | 49 | 49 | 9.0 | 14.0 | 0.00 | 0.00 | 0.00 | 71 | 1011.0 |
| 20260507162102 | 49 | 45 | 7.0 | 12.0 | 0.00 | 0.00 | 0.00 | 71 | 1011.0 |
| 20260507161038 | 49 | 70 | 9.0 | 14.0 | 0.00 | 0.00 | 0.00 | 71 | 1011.0 |
| 20260507160035 | 49 | 51 | 9.0 | 15.0 | 0.00 | 0.00 | 0.00 | 71 | 1011.0 |
| 20260507155031 | 49 | 32 | 9.0 | 13.0 | 0.00 | 0.00 | 0.00 | 70 | 1010.9 |
| 20260507154028 | 50 | 37 | 9.0 | 17.0 | 0.00 | 0.00 | 0.00 | 71 | 1010.7 |
| 20260507153024 | 50 | 37 | 10.0 | 16.0 | 0.00 | 0.00 | 0.00 | 71 | 1010.7 |
| 20260507152121 | 50 | 28 | 8.0 | 14.0 | 0.00 | 0.00 | 0.00 | 70 | 1010.7 |
| 20260507145110 | 50 | 41 | 8.0 | 13.0 | 0.00 | 0.00 | 0.00 | 68 | 1010.6 |
| 20260507144106 | 50 | 52 | 9.0 | 15.0 | 0.00 | 0.00 | 0.00 | 70 | 1010.5 |
| 20260507143103 | 50 | 19 | 8.0 | 13.0 | 0.00 | 0.00 | 0.00 | 67 | 1010.6 |
| 20260507142059 | 51 | 45 | 7.0 | 15.0 | 0.00 | 0.00 | 0.00 | 68 | 1010.7 |
| 20260507141115 | 51 | 45 | 8.0 | 14.0 | 0.00 | 0.00 | 0.00 | 68 | 1010.5 |
| 20260507140052 | 51 | 32 | 10.0 | 15.0 | 0.00 | 0.00 | 0.00 | 68 | 1010.4 |
| 20260507135048 | 51 | 44 | 8.0 | 13.0 | 0.00 | 0.00 | 0.00 | 68 | 1010.4 |
| 20260507134045 | 51 | 38 | 8.0 | 13.0 | 0.00 | 0.00 | 0.00 | 69 | 1010.3 |
| 20260507133101 | 51 | 43 | 10.0 | 15.0 | 0.00 | 0.00 | 0.00 | 67 | 1010.2 |
| 20260507132037 | 51 | 61 | 10.0 | 15.0 | 0.00 | 0.00 | 0.00 | 66 | 1010.2 |
| 20260507131034 | 51 | 51 | 7.0 | 15.0 | 0.00 | 0.00 | 0.00 | 66 | 1010.0 |
| 20260507130030 | 51 | 7 | 10.0 | 16.0 | 0.00 | 0.00 | 0.00 | 65 | 1009.9 |
| 20260507125046 | 52 | 56 | 9.0 | 14.0 | 0.00 | 0.00 | 0.00 | 64 | 1009.9 |
| 20260507124123 | 52 | 15 | 8.0 | 11.0 | 0.00 | 0.00 | 0.00 | 65 | 1009.8 |
| 20260507123120 | 52 | 17 | 7.0 | 11.0 | 0.00 | 0.00 | 0.00 | 66 | 1009.7 |
| 20260507122116 | 52 | 11 | 10.0 | 17.0 | 0.00 | 0.00 | 0.00 | 64 | 1009.8 |
| 20260507121112 | 52 | 34 | 8.0 | 13.0 | 0.00 | 0.00 | 0.00 | 65 | 1009.7 |
| 20260507120113 | 52 | 40 | 10.0 | 17.0 | 0.00 | 0.00 | 0.00 | 64 | 1009.6 |
| 20260507115105 | 52 | 31 | 8.0 | 12.0 | 0.00 | 0.00 | 0.00 | 65 | 1009.5 |
| 20260507114102 | 51 | 16 | 7.0 | 18.0 | 0.00 | 0.00 | 0.00 | 67 | 1009.4 |
| 20260507113057 | 51 | 23 | 7.0 | 12.0 | 0.00 | 0.00 | 0.00 | 68 | 1009.4 |
| 20260507112054 | 51 | 47 | 9.0 | 15.0 | 0.00 | 0.00 | 0.00 | 70 | 1009.5 |
| 20260507111050 | 51 | 24 | 6.0 | 15.0 | 0.00 | 0.00 | 0.00 | 71 | 1009.3 |
| 20260507110107 | 50 | 61 | 8.0 | 13.0 | 0.00 | 0.00 | 0.00 | 71 | 1009.2 |
| 20260507105043 | 50 | 29 | 9.0 | 14.0 | 0.00 | 0.00 | 0.00 | 73 | 1009.1 |
| 20260507104040 | 50 | 29 | 10.0 | 17.0 | 0.00 | 0.00 | 0.00 | 73 | 1009.0 |
| 20260507103036 | 49 | 27 | 8.0 | 15.0 | 0.00 | 0.00 | 0.00 | 76 | 1009.0 |
| 20260507102052 | 48 | 8 | 11.0 | 15.0 | 0.00 | 0.00 | 0.00 | 78 | 1009.0 |
| 20260507101030 | 47 | 0 | 11.0 | 16.0 | 0.00 | 0.00 | 0.00 | 79 | 1008.9 |
| 20260507100026 | 47 | 4 | 10.0 | 15.0 | 0.00 | 0.00 | 0.00 | 78 | 1008.9 |
| 20260507095122 | 47 | 4 | 7.0 | 12.0 | 0.00 | 0.00 | 0.00 | 78 | 1009.0 |
| 20260507094118 | 48 | 10 | 7.0 | 11.0 | 0.00 | 0.00 | 0.00 | 78 | 1008.9 |
| 20260507093116 | 47 | 22 | 7.0 | 11.0 | 0.00 | 0.00 | 0.00 | 78 | 1008.7 |
| 20260507092111 | 47 | 0 | 9.0 | 14.0 | 0.00 | 0.00 | 0.00 | 78 | 1008.7 |
| 20260507091108 | 47 | 57 | 5.0 | 11.0 | 0.00 | 0.00 | 0.00 | 80 | 1008.6 |
| 20260507090105 | 47 | 40 | 11.0 | 17.0 | 0.00 | 0.00 | 0.00 | 80 | 1008.3 |
| 20260507085100 | 47 | 59 | 9.0 | 15.0 | 0.00 | 0.00 | 0.00 | 81 | 1008.1 |
| 20260507084057 | 46 | 46 | 10.0 | 15.0 | 0.00 | 0.00 | 0.00 | 81 | 1008.0 |
| 20260507083053 | 46 | 25 | 10.0 | 16.0 | 0.00 | 0.00 | 0.00 | 82 | 1007.9 |
| 20260507082050 | 45 | 38 | 9.0 | 15.0 | 0.00 | 0.00 | 0.00 | 82 | 1008.0 |
| 20260507081045 | 45 | 26 | 8.0 | 13.0 | 0.00 | 0.00 | 0.00 | 83 | 1008.0 |
| 20260507080042 | 45 | 26 | 8.0 | 14.0 | 0.00 | 0.00 | 0.00 | 83 | 1008.0 |
| 20260507075038 | 45 | 0 | 8.0 | 11.0 | 0.00 | 0.00 | 0.00 | 83 | 1007.7 |
| 20260507074116 | 45 | 9 | 7.0 | 13.0 | 0.00 | 0.00 | 0.00 | 83 | 1007.6 |
| 20260507073052 | 45 | 52 | 9.0 | 16.0 | 0.00 | 0.00 | 0.00 | 83 | 1007.4 |
| 20260507072028 | 45 | 8 | 9.0 | 15.0 | 0.00 | 0.00 | 0.00 | 84 | 1007.3 |
| 20260507071024 | 45 | 11 | 9.0 | 15.0 | 0.00 | 0.00 | 0.00 | 85 | 1007.3 |
| 20260507070121 | 44 | 19 | 7.0 | 14.0 | 0.00 | 0.00 | 0.00 | 86 | 1007.4 |
| 20260507065117 | 44 | 32 | 8.0 | 13.0 | 0.00 | 0.00 | 0.00 | 87 | 1007.5 |
| 20260507064113 | 44 | 20 | 8.0 | 12.0 | 0.00 | 0.00 | 0.00 | 88 | 1007.5 |
| 20260507063110 | 44 | 16 | 11.0 | 16.0 | 0.00 | 0.00 | 0.00 | 89 | 1007.3 |
| 20260507062127 | 44 | 5 | 9.0 | 14.0 | 0.00 | 0.00 | 0.00 | 89 | 1007.2 |
| 20260507061103 | 44 | 42 | 8.0 | 12.0 | 0.00 | 0.00 | 0.00 | 90 | 1007.1 |
| 20260507060120 | 44 | 44 | 9.0 | 14.0 | 0.00 | 0.00 | 0.00 | 90 | 1006.7 |
| 20260507055056 | 44 | 19 | 8.0 | 12.0 | 0.00 | 0.00 | 0.00 | 90 | 1006.5 |
| 20260507054056 | 44 | 12 | 8.0 | 14.0 | 0.00 | 0.00 | 0.00 | 90 | 1006.4 |
| 20260507053048 | 44 | 19 | 9.0 | 14.0 | 0.00 | 0.00 | 0.00 | 90 | 1006.5 |
| 20260507052044 | 44 | 14 | 6.0 | 10.0 | 0.00 | 0.00 | 0.00 | 90 | 1006.2 |
| 20260507051041 | 44 | 21 | 7.0 | 11.0 | 0.00 | 0.00 | 0.00 | 91 | 1006.2 |
| 20260507050138 | 44 | 51 | 8.0 | 13.0 | 0.00 | 0.00 | 0.00 | 91 | 1006.2 |
| 20260507045033 | 44 | 29 | 9.0 | 14.0 | 0.00 | 0.00 | 0.00 | 91 | 1006.1 |
| 20260507044030 | 43 | 31 | 7.0 | 14.0 | 0.00 | 0.00 | 0.00 | 91 | 1006.1 |
| 20260507043046 | 43 | 23 | 9.0 | 15.0 | 0.00 | 0.00 | 0.00 | 90 | 1005.9 |
| 20260507042123 | 43 | 27 | 9.0 | 14.0 | 0.00 | 0.00 | 0.00 | 90 | 1005.6 |
| 20260507041119 | 43 | 45 | 8.0 | 14.0 | 0.00 | 0.00 | 0.00 | 90 | 1005.6 |
| 20260507040116 | 44 | 36 | 10.0 | 16.0 | 0.00 | 0.00 | 0.00 | 89 | 1005.4 |
| 20260507035112 | 44 | 6 | 11.0 | 18.0 | 0.00 | 0.00 | 0.00 | 89 | 1005.3 |
| 20260507034109 | 44 | 4 | 8.0 | 14.0 | 0.00 | 0.00 | 0.00 | 89 | 1005.3 |